Time;durP1;ratioP1;P1;durP2;ratioP2;P2;SDS_P1;SDS_P2;PMS_P1;PMS_P2;Temp;Humidity;BMP_temperature;BMP_pressure;BME280_temperature;BME280_humidity;BME280_pressure;Samples;Min_cycle;Max_cycle;Signal;HPM_P1;HPM_P2
2022/10/18 00:00:17;;;;;;;14.37;5.50;;;;;;;25.00;47.83;100628.91;4134490;28;21019;-44
2022/10/18 00:03:32;;;;;;;13.03;7.23;;;;;;;25.63;46.82;100615.69;4140670;28;20234;-43
2022/10/18 00:06:47;;;;;;;7.93;5.40;;;;;;;25.22;46.97;100648.22;4152895;28;20230;-43
2022/10/18 00:10:03;;;;;;;8.93;5.97;;;;;;;25.23;47.62;100651.75;4154913;28;20258;-42
2022/10/18 00:13:18;;;;;;;9.10;5.27;;;;;;;24.97;48.36;100653.00;4134854;28;20785;-42
2022/10/18 00:16:34;;;;;;;8.00;5.70;;;;;;;24.90;47.81;100652.28;4147418;28;20643;-41
2022/10/18 00:19:49;;;;;;;8.57;5.23;;;;;;;24.84;48.32;100651.34;4142627;28;20340;-44
2022/10/18 00:23:06;;;;;;;9.23;5.10;;;;;;;25.50;47.21;100624.13;4137245;28;20227;-41
2022/10/18 00:26:21;;;;;;;8.43;4.70;;;;;;;25.32;47.42;100631.28;4148665;28;20904;-43
2022/10/18 00:29:36;;;;;;;13.50;5.30;;;;;;;23.25;50.51;100712.56;4138094;28;20231;-42
2022/10/18 00:32:52;;;;;;;13.83;4.73;;;;;;;22.54;52.03;100702.72;4135460;28;20230;-44
2022/10/18 00:36:08;;;;;;;6.60;5.00;;;;;;;24.05;50.23;100616.78;4140590;28;20242;-44
2022/10/18 00:39:25;;;;;;;11.70;5.37;;;;;;;25.17;47.80;100601.84;4147183;28;20292;-43
2022/10/18 00:42:40;;;;;;;8.43;5.07;;;;;;;23.79;49.21;100691.25;4143478;28;20243;-43
2022/10/18 00:45:56;;;;;;;11.73;5.20;;;;;;;23.61;51.12;100645.91;4135206;28;20256;-43
2022/10/18 00:49:12;;;;;;;10.90;5.20;;;;;;;24.21;50.15;100607.22;4150769;28;20242;-38
2022/10/18 00:52:27;;;;;;;7.97;5.37;;;;;;;24.01;50.35;100628.31;4123573;28;20348;-39
2022/10/18 00:55:42;;;;;;;10.83;5.23;;;;;;;23.28;51.99;100640.75;4149306;28;20206;-44
2022/10/18 00:58:57;;;;;;;11.37;4.90;;;;;;;22.83;52.03;100690.50;4150302;28;20811;-44
2022/10/18 01:02:14;;;;;;;12.67;5.50;;;;;;;22.45;52.93;100692.13;4122468;28;20259;-44
2022/10/18 01:05:29;;;;;;;8.67;5.33;;;;;;;22.78;52.85;100647.75;4142202;28;20362;-43
2022/10/18 01:08:45;;;;;;;12.83;5.33;;;;;;;23.55;51.82;100598.78;4143892;28;20233;-43
2022/10/18 01:12:01;;;;;;;10.20;5.10;;;;;;;22.44;53.63;100663.38;4146114;28;20231;-39
2022/10/18 01:15:16;;;;;;;8.13;5.77;;;;;;;22.73;53.04;100657.63;4147454;28;20235;-41
2022/10/18 01:18:32;;;;;;;9.60;4.87;;;;;;;23.11;52.79;100611.44;4139194;28;20230;-40
2022/10/18 01:21:47;;;;;;;7.67;5.27;;;;;;;24.11;51.35;100579.75;4138971;28;20367;-38
2022/10/18 01:25:03;;;;;;;10.47;5.10;;;;;;;23.78;50.35;100634.47;4139636;28;20796;-40
2022/10/18 01:28:18;;;;;;;8.00;5.20;;;;;;;24.24;50.06;100614.91;4143653;28;20222;-42
2022/10/18 01:31:33;;;;;;;10.60;5.50;;;;;;;24.22;50.05;100633.31;4137030;28;20230;-43
2022/10/18 01:34:48;;;;;;;7.50;5.40;;;;;;;24.54;49.22;100621.41;4135621;28;20274;-44
2022/10/18 01:38:03;;;;;;;8.40;5.53;;;;;;;22.69;53.12;100680.75;4143229;28;20238;-41
2022/10/18 01:41:19;;;;;;;9.13;5.23;;;;;;;22.06;53.65;100680.38;4130699;28;20313;-43
2022/10/18 01:44:35;;;;;;;9.30;5.37;;;;;;;21.76;54.75;100668.38;4148337;28;20235;-44
2022/10/18 01:47:50;;;;;;;12.80;5.87;;;;;;;22.65;53.65;100601.75;4146297;28;20840;-44
2022/10/18 01:51:06;;;;;;;9.00;5.20;;;;;;;22.12;54.08;100646.19;4139166;28;20227;-44
2022/10/18 01:54:21;;;;;;;7.37;4.87;;;;;;;22.00;54.83;100647.88;4139458;28;20246;-43
2022/10/18 01:57:38;;;;;;;8.00;4.90;;;;;;;22.01;54.68;100620.59;4138821;28;20246;-43
2022/10/18 02:00:54;;;;;;;10.23;5.27;;;;;;;22.19;54.72;100605.53;4144858;28;20211;-45
2022/10/18 02:04:10;;;;;;;11.23;5.80;;;;;;;22.64;53.94;100587.38;4135259;28;20389;-41
2022/10/18 02:07:25;;;;;;;10.23;5.10;;;;;;;23.35;52.03;100598.09;4139265;28;20285;-44
2022/10/18 02:10:40;;;;;;;8.63;4.80;;;;;;;21.95;53.71;100653.97;4132691;28;20614;-43
2022/10/18 02:13:55;;;;;;;8.97;5.10;;;;;;;22.56;53.67;100603.91;4131425;28;20231;-40
2022/10/18 02:17:10;;;;;;;11.37;5.13;;;;;;;21.99;53.96;100632.69;4140910;28;20290;-42
2022/10/18 02:20:25;;;;;;;9.13;4.63;;;;;;;22.73;52.16;100641.34;4131048;28;20293;-43
2022/10/18 02:23:41;;;;;;;7.80;4.90;;;;;;;22.52;52.25;100653.34;4146203;28;20231;-41
2022/10/18 02:26:56;;;;;;;11.90;5.20;;;;;;;22.76;52.22;100638.16;4134245;28;20683;-43
2022/10/18 02:30:14;;;;;;;9.87;5.00;;;;;;;23.25;51.04;100624.91;4130001;28;20235;-43
2022/10/18 02:33:29;;;;;;;8.57;5.10;;;;;;;22.25;53.58;100631.75;4129593;28;20575;-45
2022/10/18 02:36:46;;;;;;;11.17;5.10;;;;;;;24.05;49.38;100580.66;4139110;28;20352;-44
2022/10/18 02:40:02;;;;;;;10.73;5.10;;;;;;;25.05;47.85;100571.91;4142632;28;20231;-44
2022/10/18 02:43:17;;;;;;;8.63;5.73;;;;;;;24.98;47.48;100590.22;4139953;28;20747;-43
2022/10/18 02:46:33;;;;;;;9.13;5.43;;;;;;;25.54;46.52;100592.59;4144566;28;20254;-44
2022/10/18 02:49:48;;;;;;;7.43;5.80;;;;;;;25.51;46.16;100612.13;4122347;28;20274;-44
2022/10/18 02:53:04;;;;;;;9.83;5.40;;;;;;;25.68;46.40;100613.09;4126153;28;20339;-44
2022/10/18 02:56:20;;;;;;;8.00;5.20;;;;;;;25.34;46.73;100631.06;4139540;28;20258;-43
2022/10/18 02:59:36;;;;;;;12.17;6.07;;;;;;;25.69;46.17;100614.72;4134206;28;20233;-44
2022/10/18 03:02:52;;;;;;;9.00;6.10;;;;;;;24.55;47.65;100663.84;4138618;28;20787;-43
2022/10/18 03:06:08;;;;;;;6.90;5.20;;;;;;;25.06;47.58;100616.25;4132366;28;20696;-46
2022/10/18 03:09:23;;;;;;;11.67;5.83;;;;;;;24.79;47.70;100637.59;4120646;28;20282;-44
2022/10/18 03:12:38;;;;;;;9.93;5.33;;;;;;;24.37;47.88;100646.53;4131782;28;20226;-43
2022/10/18 03:15:53;;;;;;;10.83;5.20;;;;;;;24.11;48.63;100666.69;4136940;28;20722;-43
2022/10/18 03:19:09;;;;;;;11.10;5.10;;;;;;;24.42;48.28;100637.69;4137415;28;20282;-44
2022/10/18 03:22:26;;;;;;;9.30;5.10;;;;;;;25.08;47.30;100611.41;4125433;28;20289;-44
2022/10/18 03:25:41;;;;;;;6.90;5.60;;;;;;;24.90;46.97;100623.19;4127162;28;20231;-43
2022/10/18 03:28:56;;;;;;;8.97;5.00;;;;;;;25.07;46.89;100617.06;4137606;28;20239;-44
2022/10/18 03:32:13;;;;;;;10.07;5.20;;;;;;;24.66;47.63;100653.00;4132177;28;20317;-43
2022/10/18 03:35:28;;;;;;;9.67;5.80;;;;;;;24.68;47.80;100656.34;4134050;28;20733;-44
2022/10/18 03:38:45;;;;;;;9.27;5.73;;;;;;;24.71;47.48;100644.16;4133802;28;20317;-47
2022/10/18 03:42:01;;;;;;;7.87;5.57;;;;;;;24.88;47.21;100621.78;4132714;28;20255;-43
2022/10/18 03:45:16;;;;;;;12.30;5.87;;;;;;;24.79;46.92;100657.47;4138951;28;20248;-43
2022/10/18 03:48:31;;;;;;;12.63;5.57;;;;;;;24.67;47.25;100659.28;4128598;28;20224;-42
2022/10/18 03:51:47;;;;;;;11.73;5.60;;;;;;;24.75;47.44;100658.97;4127947;28;20228;-47
2022/10/18 03:55:05;;;;;;;10.97;5.93;;;;;;;24.15;48.51;100689.63;4138442;28;20909;-40
2022/10/18 03:58:20;;;;;;;11.33;6.13;;;;;;;24.40;48.16;100659.66;4114321;28;20268;-45
2022/10/18 04:01:36;;;;;;;10.63;5.57;;;;;;;24.26;48.59;100680.75;4117491;28;20235;-42
2022/10/18 04:04:51;;;;;;;12.77;6.70;;;;;;;24.33;48.86;100649.91;4122711;28;20310;-40
2022/10/18 04:08:06;;;;;;;8.03;6.23;;;;;;;23.03;50.47;100684.97;4135818;28;20202;-41
2022/10/18 04:11:22;;;;;;;9.83;6.93;;;;;;;24.41;48.85;100644.16;4144521;28;20916;-43
2022/10/18 04:14:38;;;;;;;10.50;6.43;;;;;;;22.71;51.60;100684.09;4124223;28;20230;-41
2022/10/18 04:17:53;;;;;;;8.53;6.93;;;;;;;23.95;49.79;100632.78;4136729;28;20302;-43
2022/10/18 04:21:08;;;;;;;9.53;6.90;;;;;;;23.85;50.19;100643.34;4141233;28;20203;-44
2022/10/18 04:24:24;;;;;;;11.97;6.97;;;;;;;24.26;49.17;100626.38;4138070;28;20924;-45
2022/10/18 04:27:40;;;;;;;10.57;6.70;;;;;;;24.18;49.23;100634.03;4119821;28;20651;-44
2022/10/18 04:30:55;;;;;;;14.30;6.67;;;;;;;24.47;48.68;100613.34;4141192;28;20291;-44
2022/10/18 04:34:11;;;;;;;10.47;7.13;;;;;;;24.05;49.36;100652.09;4134881;28;20260;-45
2022/10/18 04:37:27;;;;;;;11.43;7.03;;;;;;;25.27;47.42;100601.22;4140865;28;20222;-42
2022/10/18 04:40:43;;;;;;;12.13;7.13;;;;;;;25.00;47.69;100620.75;4132479;28;21068;-43
2022/10/18 04:43:59;;;;;;;9.47;6.83;;;;;;;24.67;48.16;100634.81;4131734;28;20248;-41
2022/10/18 04:47:15;;;;;;;8.83;6.40;;;;;;;25.41;47.00;100616.31;4128306;28;20291;-39
2022/10/18 04:50:30;;;;;;;8.27;6.37;;;;;;;23.60;49.25;100714.00;4138586;28;20239;-40
2022/10/18 04:53:45;;;;;;;12.50;6.67;;;;;;;24.55;48.10;100647.53;4132975;28;20247;-43
2022/10/18 04:57:01;;;;;;;14.90;7.10;;;;;;;25.08;46.80;100616.84;4133489;28;20302;-44
2022/10/18 05:00:16;;;;;;;12.77;6.10;;;;;;;24.97;47.38;100637.53;4139998;28;20256;-43
2022/10/18 05:03:31;;;;;;;12.10;6.33;;;;;;;25.73;46.15;100612.38;4134748;28;20239;-40
2022/10/18 05:06:47;;;;;;;13.57;7.00;;;;;;;25.17;46.43;100639.09;4139632;28;20307;-44
2022/10/18 05:10:02;;;;;;;11.23;6.83;;;;;;;25.50;46.44;100630.38;4129793;28;20269;-43
2022/10/18 05:13:18;;;;;;;11.67;6.90;;;;;;;25.28;46.86;100656.50;4134096;28;20933;-45
2022/10/18 05:16:34;;;;;;;10.23;7.23;;;;;;;25.08;47.03;100660.38;4136765;28;20407;-42
2022/10/18 05:19:50;;;;;;;14.73;7.17;;;;;;;25.12;47.13;100650.69;4131015;28;20266;-44
2022/10/18 05:23:09;;;;;;;9.13;6.83;;;;;;;24.74;47.45;100665.47;4136207;28;20772;-42
2022/10/18 05:26:24;;;;;;;10.90;7.47;;;;;;;25.12;47.16;100639.81;4131310;28;20239;-44
2022/10/18 05:29:40;;;;;;;8.33;6.47;;;;;;;24.79;47.99;100657.47;4136841;28;20591;-45
2022/10/18 05:32:56;;;;;;;13.83;7.60;;;;;;;24.46;48.85;100647.03;4133365;28;20520;-43
2022/10/18 05:36:10;;;;;;;10.00;7.07;;;;;;;24.85;47.49;100648.38;4137382;28;20207;-44
2022/10/18 05:39:25;;;;;;;11.63;7.00;;;;;;;24.84;47.99;100641.28;4134810;28;20238;-45
2022/10/18 05:42:40;;;;;;;10.20;6.37;;;;;;;23.58;50.09;100693.31;4134660;28;20751;-40
2022/10/18 05:45:56;;;;;;;15.87;8.07;;;;;;;24.52;48.68;100654.28;4136651;28;20252;-43
2022/10/18 05:49:11;;;;;;;9.73;6.70;;;;;;;24.59;48.08;100652.28;4131893;28;20269;-43
2022/10/18 14:36:11;;;;;;;5.50;3.13;;;;;;;27.83;44.90;100704.59;4169147;28;20292;-43
2022/10/18 14:38:21;;;;;;;3.72;3.42;;;;;;;27.39;45.50;100729.84;4144182;28;20328;-41
2022/10/18 14:40:41;;;;;;;4.32;3.92;;;;;;;28.13;44.95;100687.78;4146264;28;20490;-42
2022/10/18 14:42:47;;;;;;;3.85;3.50;;;;;;;28.20;44.41;100693.09;4142609;28;20256;-40
2022/10/18 14:44:55;;;;;;;7.80;4.00;;;;;;;28.20;44.61;100672.03;4142173;28;20398;-40
2022/10/18 14:47:10;;;;;;;4.47;3.85;;;;;;;28.24;44.52;100681.41;4144248;28;20478;-43
2022/10/18 14:49:14;;;;;;;5.05;3.88;;;;;;;28.20;44.34;100688.44;4139547;28;20244;-41
2022/10/18 14:51:23;;;;;;;6.55;4.03;;;;;;;28.44;44.42;100667.13;4143331;28;20262;-43
2022/10/18 14:53:34;;;;;;;5.63;4.15;;;;;;;28.04;45.20;100698.34;4140496;28;20404;-44
2022/10/18 14:55:37;;;;;;;4.70;4.20;;;;;;;28.52;44.62;100658.44;4144490;28;20486;-43
2022/10/18 14:57:46;;;;;;;9.32;5.07;;;;;;;28.47;44.28;100661.13;4143587;28;20739;-43
2022/10/18 14:59:55;;;;;;;4.75;4.35;;;;;;;28.38;44.32;100665.44;4141086;28;20228;-42
2022/10/18 15:02:00;;;;;;;5.03;4.53;;;;;;;28.45;44.13;100670.69;4137360;28;20323;-43
2022/10/18 15:04:10;;;;;;;5.88;4.13;;;;;;;28.29;44.48;100678.72;4128806;28;20869;-43
2022/10/18 15:06:21;;;;;;;6.57;4.10;;;;;;;28.39;44.92;100685.38;4139698;28;20255;-41
2022/10/18 15:08:26;;;;;;;7.35;4.43;;;;;;;28.40;44.95;100670.63;4138433;28;20282;-41
2022/10/18 15:10:34;;;;;;;4.68;4.20;;;;;;;28.06;44.80;100696.19;4141940;28;20445;-43
2022/10/18 15:12:38;;;;;;;6.45;4.22;;;;;;;27.60;45.61;100706.41;4144478;28;20521;-42
2022/10/18 15:15:01;;;;;;;5.72;3.97;;;;;;;27.37;46.08;100718.38;4142055;28;20702;-43
2022/10/18 15:17:22;;;;;;;4.03;3.70;;;;;;;28.02;44.90;100680.53;4142182;28;20224;-42
2022/10/18 15:19:38;;;;;;;7.43;4.10;;;;;;;28.20;44.76;100679.44;4142783;28;20483;-43
2022/10/18 15:21:57;;;;;;;8.38;4.40;;;;;;;28.39;44.16;100667.06;4139109;28;20209;-42
2022/10/18 15:24:25;;;;;;;5.80;4.65;;;;;;;28.23;44.71;100670.72;4138999;28;20228;-42
2022/10/18 15:26:29;;;;;;;7.13;4.45;;;;;;;28.39;44.45;100669.78;4143191;28;20201;-43
2022/10/18 15:28:38;;;;;;;5.85;4.32;;;;;;;28.07;45.05;100684.16;4131605;28;20245;-41
2022/10/18 15:30:46;;;;;;;4.95;4.45;;;;;;;27.85;45.59;100691.50;4141716;28;20206;-43
2022/10/18 15:32:51;;;;;;;5.47;4.97;;;;;;;27.59;45.68;100702.88;4139146;28;20438;-42
2022/10/18 15:34:53;;;;;;;5.00;4.60;;;;;;;28.34;44.96;100645.13;4141897;28;20333;-42
2022/10/18 15:37:15;;;;;;;5.32;4.47;;;;;;;27.51;46.03;100697.00;4136072;28;20704;-43
2022/10/18 15:39:22;;;;;;;5.20;4.50;;;;;;;28.10;45.50;100674.63;4143427;28;20205;-43
2022/10/18 15:41:42;;;;;;;5.60;4.55;;;;;;;28.17;45.19;100667.09;4142482;28;20228;-42
2022/10/18 15:43:50;;;;;;;4.72;4.32;;;;;;;28.48;44.45;100642.84;4142265;28;20205;-40
2022/10/18 15:45:56;;;;;;;6.50;4.63;;;;;;;28.19;44.86;100678.59;4144157;28;20484;-43
2022/10/18 15:48:09;;;;;;;6.55;4.18;;;;;;;27.62;45.23;100691.47;4142369;28;20796;-42
2022/10/18 15:50:34;;;;;;;6.32;4.28;;;;;;;27.87;45.22;100683.88;4137377;28;20235;-42
2022/10/18 15:52:39;;;;;;;4.95;4.47;;;;;;;28.30;44.37;100647.56;4139035;28;20461;-43
2022/10/18 15:54:41;;;;;;;5.00;4.50;;;;;;;27.89;44.45;100701.69;4142148;28;20665;-42
2022/10/18 15:56:55;;;;;;;4.10;3.80;;;;;;;27.24;45.83;100727.69;4144615;28;20570;-43
2022/10/18 15:58:59;;;;;;;4.68;4.28;;;;;;;27.60;45.43;100696.34;4144210;28;20244;-41
2022/10/18 16:01:21;;;;;;;5.28;4.55;;;;;;;26.38;47.07;100744.84;4146971;28;20207;-41
2022/10/18 16:03:24;;;;;;;5.60;3.97;;;;;;;27.39;45.97;100691.63;4143097;28;20229;-42
2022/10/18 16:05:26;;;;;;;3.78;3.47;;;;;;;27.52;45.46;100690.47;4141605;28;20240;-43
2022/10/18 16:07:33;;;;;;;5.68;4.00;;;;;;;27.41;45.32;100700.38;4141715;28;20857;-42
2022/10/18 16:09:36;;;;;;;5.85;4.47;;;;;;;27.03;46.66;100719.13;4134488;28;20216;-41
2022/10/18 16:11:38;;;;;;;4.38;3.70;;;;;;;27.73;45.87;100667.84;4139330;28;20205;-42
2022/10/18 16:13:46;;;;;;;4.82;4.00;;;;;;;27.76;45.44;100682.94;4142429;28;20212;-43
2022/10/18 16:15:47;;;;;;;4.68;3.50;;;;;;;26.99;46.41;100722.59;4137973;28;20224;-42
2022/10/18 16:17:49;;;;;;;7.25;3.70;;;;;;;27.19;46.01;100716.69;4144705;28;20284;-43
2022/10/18 16:19:57;;;;;;;7.35;4.10;;;;;;;27.61;45.17;100700.72;4145774;28;20400;-43
2022/10/18 16:21:59;;;;;;;4.65;3.58;;;;;;;27.75;44.71;100701.22;4141485;28;20219;-43
2022/10/18 16:24:07;;;;;;;4.07;3.50;;;;;;;27.96;44.89;100682.38;4141100;28;20433;-43
2022/10/18 16:26:17;;;;;;;5.72;4.03;;;;;;;27.61;45.34;100719.84;4138091;28;20679;-43
2022/10/18 16:28:23;;;;;;;5.65;3.55;;;;;;;27.39;45.69;100730.69;4142895;28;20623;-44
2022/10/18 16:30:31;;;;;;;4.72;4.15;;;;;;;27.83;45.22;100699.97;4139607;28;20524;-43
2022/10/18 16:32:39;;;;;;;4.80;4.10;;;;;;;27.67;45.44;100709.00;4141432;28;20236;-43
2022/10/18 16:34:41;;;;;;;6.20;4.20;;;;;;;27.44;45.93;100719.84;4145346;28;20241;-41
2022/10/18 16:36:43;;;;;;;5.72;4.43;;;;;;;27.35;46.01;100728.72;4142663;28;20665;-43
2022/10/18 16:38:53;;;;;;;7.30;4.13;;;;;;;27.77;45.74;100703.69;4143188;28;21053;-43
2022/10/18 16:40:58;;;;;;;6.80;4.30;;;;;;;27.28;46.33;100726.16;4119433;28;20226;-43
2022/10/18 16:43:00;;;;;;;5.53;4.07;;;;;;;26.88;47.03;100746.97;4120490;28;20237;-43
2022/10/18 16:45:09;;;;;;;10.52;4.47;;;;;;;27.24;46.70;100714.03;4138091;28;20201;-43
2022/10/18 16:47:10;;;;;;;9.40;4.18;;;;;;;26.31;48.67;100757.78;4144681;28;20455;-43
2022/10/18 16:49:22;;;;;;;8.68;4.43;;;;;;;26.89;47.57;100715.88;4139480;28;20204;-43
2022/10/18 16:51:25;;;;;;;6.55;4.18;;;;;;;27.15;47.05;100718.28;4141576;28;20513;-43
2022/10/18 16:53:27;;;;;;;6.13;3.92;;;;;;;27.15;46.71;100724.53;4143527;28;20207;-44
2022/10/18 16:55:37;;;;;;;5.45;3.70;;;;;;;27.12;47.14;100727.75;4139810;28;20729;-43
2022/10/18 16:57:38;;;;;;;4.00;3.60;;;;;;;27.38;46.30;100709.94;4142937;28;20529;-43
2022/10/18 16:59:40;;;;;;;4.43;3.85;;;;;;;27.56;45.72;100692.44;4138923;28;20248;-43
2022/10/18 17:01:48;;;;;;;8.20;3.65;;;;;;;27.69;45.25;100695.94;4144520;28;20244;-43
2022/10/18 17:03:51;;;;;;;4.35;3.92;;;;;;;28.07;44.75;100683.31;4129853;28;20307;-42
2022/10/18 17:05:53;;;;;;;4.45;3.35;;;;;;;28.02;44.58;100700.47;4134808;28;20286;-43
2022/10/18 17:08:01;;;;;;;5.75;4.00;;;;;;;27.47;45.20;100750.47;4139690;28;20350;-43
2022/10/18 17:10:03;;;;;;;4.95;3.72;;;;;;;28.09;44.48;100711.22;4147588;28;20823;-42
2022/10/18 17:12:05;;;;;;;5.25;4.38;;;;;;;27.92;44.59;100725.78;4142097;28;20288;-43
2022/10/18 17:14:13;;;;;;;5.90;4.07;;;;;;;27.69;45.49;100742.38;4137773;28;20764;-43
2022/10/18 17:16:18;;;;;;;5.03;4.20;;;;;;;27.62;45.96;100748.84;4144525;28;20258;-43
2022/10/18 17:18:25;;;;;;;4.60;3.83;;;;;;;27.38;45.90;100766.41;4145292;28;20212;-43
2022/10/18 17:20:32;;;;;;;5.65;4.03;;;;;;;26.81;46.59;100778.22;4140343;28;20492;-42
2022/10/18 17:22:34;;;;;;;4.55;3.83;;;;;;;27.11;46.42;100758.84;4142945;28;20248;-44
2022/10/18 17:24:36;;;;;;;4.20;3.80;;;;;;;27.16;46.09;100748.06;4127708;28;20797;-43
2022/10/18 17:26:44;;;;;;;4.20;3.80;;;;;;;26.92;46.54;100776.50;4144519;28;20526;-43
2022/10/18 17:28:51;;;;;;;7.28;3.83;;;;;;;26.90;46.49;100780.28;4140228;28;20219;-42
2022/10/18 17:30:53;;;;;;;5.35;3.90;;;;;;;26.76;46.65;100775.34;4140601;28;20213;-42
2022/10/18 17:33:01;;;;;;;6.45;3.83;;;;;;;27.08;46.43;100767.56;4135840;28;20520;-43
2022/10/18 17:35:04;;;;;;;4.65;3.70;;;;;;;26.33;47.00;100796.53;4141698;28;22083;-43
2022/10/18 17:37:06;;;;;;;4.65;3.95;;;;;;;26.82;46.54;100777.94;4143769;28;20686;-43
2022/10/18 17:39:14;;;;;;;5.70;3.97;;;;;;;26.48;46.93;100798.78;4133319;28;20296;-42
2022/10/18 17:41:16;;;;;;;5.45;4.18;;;;;;;27.24;46.24;100747.63;4143617;28;20239;-41
2022/10/18 17:43:18;;;;;;;4.90;4.45;;;;;;;26.64;46.96;100797.22;4143326;28;20501;-42
2022/10/18 17:45:26;;;;;;;6.55;4.20;;;;;;;26.92;46.31;100787.41;4136133;28;20446;-43
2022/10/18 17:47:27;;;;;;;6.50;4.50;;;;;;;26.66;47.11;100806.81;4140950;28;20303;-42
2022/10/18 17:49:29;;;;;;;6.43;4.45;;;;;;;26.88;46.41;100782.44;4139871;28;20499;-43
2022/10/18 17:51:39;;;;;;;7.45;4.68;;;;;;;27.19;46.03;100760.38;4144232;28;20427;-43
2022/10/18 17:53:41;;;;;;;4.78;4.20;;;;;;;26.82;46.85;100798.94;4119540;28;20304;-42
2022/10/18 17:55:42;;;;;;;4.80;4.00;;;;;;;27.16;45.71;100778.09;4138536;28;20396;-43
2022/10/18 17:57:51;;;;;;;6.55;4.30;;;;;;;26.82;46.20;100791.56;4142342;28;20469;-43
2022/10/18 17:59:54;;;;;;;4.90;4.22;;;;;;;27.16;46.22;100772.63;4141073;28;20314;-42
2022/10/18 18:01:55;;;;;;;6.25;4.15;;;;;;;26.46;46.65;100815.38;4137458;28;20937;-42
2022/10/18 18:04:04;;;;;;;4.45;3.92;;;;;;;26.88;46.75;100793.34;4144813;28;20470;-42
2022/10/18 18:06:16;;;;;;;4.72;3.72;;;;;;;27.04;46.74;100780.84;4139146;28;20252;-41
2022/10/18 18:08:17;;;;;;;6.45;4.00;;;;;;;27.30;46.03;100755.91;4137862;28;20957;-42
2022/10/18 18:10:26;;;;;;;6.57;3.92;;;;;;;26.47;47.16;100808.00;4136661;28;20451;-43
2022/10/18 18:12:27;;;;;;;5.82;4.15;;;;;;;26.85;47.14;100774.72;4135730;28;20849;-42
2022/10/18 18:14:29;;;;;;;5.88;3.63;;;;;;;26.26;47.72;100801.28;4143344;28;20603;-42
2022/10/18 18:16:40;;;;;;;4.65;3.83;;;;;;;25.98;48.16;100805.53;4141669;28;20498;-42
2022/10/18 18:18:42;;;;;;;5.50;4.00;;;;;;;26.36;47.69;100785.16;4145487;28;20208;-42
2022/10/18 18:20:51;;;;;;;4.38;3.95;;;;;;;27.06;46.89;100764.22;4142370;28;20447;-43
2022/10/18 18:22:59;;;;;;;5.20;3.88;;;;;;;26.74;47.10;100781.06;4139463;28;20701;-43
2022/10/18 18:25:01;;;;;;;4.50;4.10;;;;;;;26.32;48.11;100800.34;4142089;28;20248;-41
2022/10/18 18:27:03;;;;;;;4.68;3.60;;;;;;;26.84;47.15;100777.69;4140009;28;20260;-43
2022/10/18 18:29:12;;;;;;;6.70;4.30;;;;;;;26.68;47.05;100782.03;4143133;28;20391;-43
2022/10/18 18:31:16;;;;;;;5.55;3.83;;;;;;;26.17;48.26;100811.72;4139676;28;21493;-42
2022/10/18 18:33:18;;;;;;;12.23;4.65;;;;;;;26.57;47.78;100777.44;4139959;28;20232;-42
2022/10/18 18:35:27;;;;;;;6.03;3.90;;;;;;;26.69;47.07;100772.78;4144133;28;20708;-43
2022/10/18 18:37:28;;;;;;;5.78;3.95;;;;;;;26.35;48.19;100805.28;4131839;28;20652;-43
2022/10/18 18:39:34;;;;;;;5.95;4.35;;;;;;;26.68;47.40;100782.03;4140218;28;20387;-42
2022/10/18 18:41:42;;;;;;;5.72;3.97;;;;;;;25.70;49.36;100820.66;4139452;28;20333;-42
2022/10/18 18:43:48;;;;;;;4.65;3.67;;;;;;;26.47;47.95;100775.28;4140717;28;20689;-42
2022/10/18 18:45:50;;;;;;;5.50;3.58;;;;;;;26.63;47.27;100771.03;4136368;28;20247;-42
2022/10/18 18:47:59;;;;;;;4.85;3.88;;;;;;;26.50;47.85;100789.31;4138550;28;20752;-43
2022/10/18 18:50:01;;;;;;;4.45;3.63;;;;;;;26.66;47.34;100782.28;4142874;28;20362;-43
2022/10/18 18:52:03;;;;;;;8.60;3.60;;;;;;;25.54;49.21;100824.91;4140593;28;20662;-43
2022/10/18 18:54:13;;;;;;;6.10;3.78;;;;;;;26.44;48.08;100768.44;4138574;28;20215;-43
2022/10/18 18:56:17;;;;;;;7.03;3.53;;;;;;;25.33;49.86;100818.06;4139044;28;20303;-42
2022/10/18 18:58:19;;;;;;;7.15;3.38;;;;;;;26.27;47.85;100784.69;4139615;28;20283;-42
2022/10/18 19:00:28;;;;;;;5.03;3.20;;;;;;;26.92;47.06;100749.19;4142316;28;20240;-43
2022/10/18 19:02:29;;;;;;;5.68;3.40;;;;;;;26.08;48.56;100810.41;4140804;28;20244;-43
2022/10/18 19:04:31;;;;;;;3.63;3.28;;;;;;;26.66;47.49;100768.63;4144747;28;20244;-43
2022/10/18 19:06:45;;;;;;;5.50;3.70;;;;;;;26.82;47.43;100769.75;4142069;28;20310;-41
2022/10/18 19:08:47;;;;;;;5.60;3.60;;;;;;;25.96;48.74;100821.31;4141752;28;20225;-43
2022/10/18 19:10:49;;;;;;;6.60;3.80;;;;;;;26.50;47.87;100770.22;4142160;28;20251;-42
2022/10/18 19:12:57;;;;;;;5.85;3.20;;;;;;;26.60;47.70;100772.31;4143746;28;20565;-43
2022/10/18 19:14:58;;;;;;;4.13;3.70;;;;;;;25.74;49.40;100821.84;4142984;28;20240;-43
2022/10/18 19:17:01;;;;;;;5.07;3.40;;;;;;;26.46;48.45;100776.38;4141687;28;20324;-42
2022/10/18 19:19:14;;;;;;;7.78;3.85;;;;;;;26.06;48.53;100804.38;4141970;28;20696;-43
2022/10/18 19:21:16;;;;;;;3.67;3.20;;;;;;;26.50;48.06;100778.41;4142878;28;20381;-43
2022/10/18 19:23:18;;;;;;;5.57;3.60;;;;;;;26.95;47.30;100757.72;4140268;28;20709;-43
2022/10/18 19:25:31;;;;;;;9.23;3.63;;;;;;;26.17;47.94;100798.09;4147737;28;20596;-43
2022/10/18 19:27:34;;;;;;;7.85;3.40;;;;;;;26.50;47.98;100785.72;4142386;28;20550;-42
2022/10/18 19:29:38;;;;;;;3.70;3.17;;;;;;;26.82;47.81;100767.03;4145596;28;20205;-43
2022/10/18 19:31:47;;;;;;;6.55;3.55;;;;;;;25.85;49.31;100805.78;4143349;28;20592;-43
2022/10/18 19:33:48;;;;;;;4.93;3.35;;;;;;;26.58;48.21;100757.28;4143144;28;20299;-42
2022/10/18 19:36:00;;;;;;;6.70;3.67;;;;;;;26.37;48.72;100784.09;4144944;28;20204;-43
2022/10/18 19:38:08;;;;;;;8.13;3.22;;;;;;;26.50;48.81;100759.31;4144460;28;20720;-42
2022/10/18 19:40:09;;;;;;;5.57;3.03;;;;;;;26.47;48.54;100762.50;4145183;28;20236;-43
2022/10/18 19:42:13;;;;;;;5.70;3.50;;;;;;;26.51;48.77;100763.69;4146572;28;20690;-43
2022/10/18 19:44:29;;;;;;;5.20;3.50;;;;;;;26.78;47.85;100745.94;4146386;28;20224;-43
2022/10/18 19:46:30;;;;;;;5.07;3.08;;;;;;;27.04;47.71;100733.59;4141658;28;20284;-43
2022/10/18 19:48:32;;;;;;;5.07;3.30;;;;;;;26.47;48.66;100776.13;4141127;28;20237;-42
2022/10/18 19:50:41;;;;;;;4.07;2.90;;;;;;;26.90;47.82;100749.44;4142578;28;20210;-43
2022/10/18 19:52:42;;;;;;;3.60;2.90;;;;;;;26.65;48.04;100777.88;4146685;28;20247;-43
2022/10/18 19:54:44;;;;;;;3.20;2.67;;;;;;;26.57;48.36;100780.16;4144170;28;20205;-43
2022/10/18 19:56:52;;;;;;;5.50;2.70;;;;;;;26.56;47.84;100765.69;4141526;28;20255;-42
2022/10/18 19:58:55;;;;;;;4.25;2.88;;;;;;;26.76;47.79;100754.38;4129575;28;20252;-43
2022/10/18 20:00:58;;;;;;;4.40;2.80;;;;;;;26.59;47.90;100778.00;4145042;28;20212;-43
2022/10/18 20:03:07;;;;;;;5.15;2.95;;;;;;;26.36;48.65;100796.06;4141875;28;20295;-43
2022/10/18 20:05:09;;;;;;;3.33;2.70;;;;;;;26.57;48.28;100775.56;4135880;28;20217;-43
2022/10/18 20:07:11;;;;;;;3.08;2.80;;;;;;;26.73;48.01;100762.22;4138772;28;20225;-42
2022/10/18 20:09:20;;;;;;;5.70;2.97;;;;;;;26.77;47.57;100758.75;4143816;28;20212;-43
2022/10/18 20:11:25;;;;;;;4.80;2.72;;;;;;;26.10;48.57;100806.41;4144092;28;20677;-44
2022/10/18 20:13:27;;;;;;;5.80;2.80;;;;;;;26.71;47.80;100755.09;4144870;28;20490;-43
2022/10/18 20:15:36;;;;;;;3.03;2.72;;;;;;;26.34;47.91;100790.84;4145394;28;20232;-41
2022/10/18 20:17:37;;;;;;;2.90;2.67;;;;;;;26.20;48.57;100799.50;4143607;28;20220;-42
2022/10/18 20:19:39;;;;;;;3.55;2.70;;;;;;;26.51;47.88;100771.88;4143903;28;20578;-42
2022/10/18 20:21:48;;;;;;;6.50;3.00;;;;;;;26.55;47.76;100764.03;4119343;28;20228;-42
2022/10/18 20:23:49;;;;;;;2.97;2.53;;;;;;;26.38;48.08;100777.56;4146443;28;20256;-43
2022/10/18 20:25:59;;;;;;;5.97;2.90;;;;;;;26.37;48.58;100781.38;4146610;28;20205;-43
2022/10/18 20:28:21;;;;;;;3.47;3.13;;;;;;;26.68;47.53;100762.94;4141227;28;20248;-43
2022/10/18 20:30:23;;;;;;;3.03;2.60;;;;;;;26.55;47.85;100765.94;4140951;28;20307;-42
2022/10/18 20:32:24;;;;;;;4.90;3.10;;;;;;;26.56;47.79;100773.06;4144781;28;20232;-42
2022/10/18 20:34:33;;;;;;;4.70;3.20;;;;;;;26.17;48.59;100787.19;4141627;28;20243;-43